Time;durP1;ratioP1;P1;durP2;ratioP2;P2;SDS_P1;SDS_P2;PMS_P1;PMS_P2;Temp;Humidity;BMP_temperature;BMP_pressure;BME280_temperature;BME280_humidity;BME280_pressure;Samples;Min_cycle;Max_cycle;Signal;HPM_P1;HPM_P2
2022/09/23 00:01:48;;;;;;;11.52;6.95;;;;;;;14.24;79.11;101876.78;5028233;28;20057;-64
2022/09/23 00:04:14;;;;;;;9.32;7.10;;;;;;;14.22;79.09;101873.31;5028502;28;20059;-64
2022/09/23 00:06:40;;;;;;;8.07;6.30;;;;;;;14.17;79.29;101872.59;5027525;28;20029;-64
2022/09/23 00:09:05;;;;;;;9.70;7.55;;;;;;;14.13;79.54;101872.72;5026882;28;20025;-64
2022/09/23 00:11:31;;;;;;;9.02;7.30;;;;;;;14.10;79.41;101866.63;5027575;28;20029;-64
2022/09/23 00:13:58;;;;;;;12.10;7.35;;;;;;;14.07;79.45;101864.94;5027984;28;20054;-66
2022/09/23 00:16:27;;;;;;;8.07;6.80;;;;;;;14.05;79.65;101871.22;5008391;28;20064;-65
2022/09/23 00:18:52;;;;;;;9.60;7.20;;;;;;;14.00;80.01;101866.06;5007261;28;20496;-64
2022/09/23 00:21:19;;;;;;;10.40;7.53;;;;;;;14.01;79.93;101865.13;5008213;28;20033;-65
2022/09/23 00:23:44;;;;;;;9.27;6.97;;;;;;;14.01;79.61;101855.41;5037216;28;20036;-65
2022/09/23 00:26:12;;;;;;;8.55;6.80;;;;;;;13.95;80.04;101846.78;5047446;28;20052;-65
2022/09/23 00:28:38;;;;;;;14.35;7.00;;;;;;;13.93;80.01;101848.63;5047790;28;20075;-63
2022/09/23 00:31:12;;;;;;;10.13;7.15;;;;;;;13.86;80.32;101847.94;5037723;28;20137;-65
2022/09/23 00:33:39;;;;;;;9.50;7.32;;;;;;;13.87;80.21;101857.63;5028416;28;20460;-65
2022/09/23 00:36:06;;;;;;;10.48;7.13;;;;;;;13.91;80.12;101851.34;5036570;28;20040;-65
2022/09/23 00:38:32;;;;;;;11.15;7.40;;;;;;;13.92;80.08;101858.34;5047582;28;20054;-65
2022/09/23 00:40:58;;;;;;;10.82;7.40;;;;;;;13.92;80.07;101857.47;5048456;28;20482;-65
2022/09/23 00:43:51;;;;;;;9.20;6.68;;;;;;;13.92;80.04;101854.81;5042204;28;20022;-65
2022/09/23 00:46:35;;;;;;;9.25;7.47;;;;;;;13.92;80.01;101850.41;5028520;28;20036;-64
2022/09/23 00:49:09;;;;;;;9.70;7.72;;;;;;;13.93;80.01;101845.97;5027756;28;20021;-67
2022/09/23 00:51:39;;;;;;;12.10;7.88;;;;;;;13.95;80.02;101841.50;5014672;28;20052;-66
2022/09/23 00:54:05;;;;;;;11.02;7.53;;;;;;;13.85;80.23;101844.41;5027476;28;20029;-65
2022/09/23 00:56:31;;;;;;;11.07;7.60;;;;;;;13.90;80.27;101845.16;5026844;28;20472;-63
2022/09/23 00:58:57;;;;;;;12.05;7.82;;;;;;;13.86;80.45;101835.59;5026625;28;20441;-66
2022/09/23 01:01:23;;;;;;;11.13;8.13;;;;;;;13.95;80.09;101838.84;5026838;28;20028;-66
2022/09/23 01:03:49;;;;;;;10.82;7.22;;;;;;;13.93;80.23;101832.75;5045900;28;20044;-65
2022/09/23 01:06:14;;;;;;;12.32;6.90;;;;;;;13.93;80.01;101828.28;5120107;22;20045;-63
2022/09/23 01:08:41;;;;;;;11.80;7.95;;;;;;;13.98;80.04;101833.44;5046977;28;20379;-64
2022/09/23 01:11:26;;;;;;;10.68;7.80;;;;;;;13.97;79.97;101834.38;5047336;28;20025;-66
2022/09/23 01:14:00;;;;;;;9.90;7.88;;;;;;;14.03;79.83;101829.72;5047653;28;20111;-62
2022/09/23 01:16:32;;;;;;;10.18;7.57;;;;;;;14.01;79.70;101828.91;5045289;28;20049;-64
2022/09/23 01:19:17;;;;;;;11.25;7.65;;;;;;;13.97;79.88;101832.56;5046466;28;20498;-65
2022/09/23 01:22:00;;;;;;;12.95;7.72;;;;;;;13.96;79.75;101829.97;5045698;28;20029;-66
2022/09/23 01:24:34;;;;;;;9.60;7.60;;;;;;;13.95;79.61;101826.47;5045066;28;20104;-64
2022/09/23 01:27:33;;;;;;;11.02;8.35;;;;;;;13.94;79.69;101827.34;5047959;28;20040;-63
2022/09/23 01:30:01;;;;;;;;;;;;;;;13.90;79.93;101828.38;5047948;28;20024;-64
2022/09/23 01:32:52;;;;;;;11.40;7.32;;;;;;;13.77;79.99;101822.63;5046659;28;19923;-65
2022/09/23 01:35:37;;;;;;;10.55;8.40;;;;;;;13.74;79.76;101823.59;5048401;28;20090;-66
2022/09/23 01:38:16;;;;;;;10.40;7.47;;;;;;;13.69;80.08;101825.50;5046788;28;20470;-65
2022/09/23 01:40:48;;;;;;;13.30;7.57;;;;;;;13.65;80.25;101821.22;5044617;28;20453;-65
2022/09/23 01:43:20;;;;;;;12.85;8.13;;;;;;;13.60;80.52;101816.06;5047629;28;20086;-64
2022/09/23 01:45:47;;;;;;;8.43;7.53;;;;;;;13.62;80.12;101816.91;5047549;28;20541;-65
2022/09/23 01:48:32;;;;;;;9.85;7.65;;;;;;;13.57;80.34;101805.56;5045603;28;20025;-66
2022/09/23 01:51:33;;;;;;;11.85;7.25;;;;;;;13.57;80.29;101802.06;5046057;28;20103;-67
2022/09/23 01:54:10;;;;;;;9.43;8.15;;;;;;;13.60;80.10;101804.59;5032387;28;20087;-68
2022/09/23 01:56:42;;;;;;;10.55;7.65;;;;;;;13.52;80.29;101807.50;5045732;28;20712;-64
2022/09/23 01:59:13;;;;;;;9.82;8.15;;;;;;;13.44;80.63;101794.47;5045571;28;20029;-66
2022/09/23 02:01:43;;;;;;;11.82;7.45;;;;;;;13.49;80.24;101797.84;5046656;28;20731;-64
2022/09/23 02:04:16;;;;;;;8.60;7.72;;;;;;;13.47;79.85;101796.16;5045799;28;20028;-65
2022/09/23 02:06:46;;;;;;;10.00;7.63;;;;;;;13.49;79.61;101792.56;5045968;28;20090;-65
2022/09/23 02:09:14;;;;;;;8.88;7.97;;;;;;;13.37;79.94;101799.06;5046504;28;20036;-65
2022/09/23 02:11:44;;;;;;;9.20;7.72;;;;;;;13.38;80.06;101784.94;5046205;28;20028;-65
2022/09/23 02:14:21;;;;;;;12.20;8.00;;;;;;;13.42;79.47;101787.50;5046486;28;20035;-65
2022/09/23 02:16:50;;;;;;;16.45;8.18;;;;;;;13.45;79.67;101782.09;5047650;28;20166;-65
2022/09/23 02:19:23;;;;;;;11.98;7.20;;;;;;;13.39;79.65;101778.72;5048085;28;20056;-66
2022/09/23 02:21:54;;;;;;;8.00;7.20;;;;;;;13.40;79.67;101782.25;5046523;28;20029;-65
2022/09/23 02:24:33;;;;;;;10.98;7.68;;;;;;;13.34;79.75;101777.13;5044533;28;20021;-65
2022/09/23 02:27:14;;;;;;;;;;;;;;;13.32;80.13;101774.53;5046625;28;20033;-64
2022/09/23 02:29:47;;;;;;;12.55;7.40;;;;;;;13.32;79.79;101771.88;5045359;28;19999;-63
2022/09/23 02:32:18;;;;;;;9.32;6.90;;;;;;;13.27;79.84;101765.84;5045622;28;20467;-65
2022/09/23 02:34:49;;;;;;;9.60;7.55;;;;;;;13.29;80.07;101769.34;5044823;28;20073;-65
2022/09/23 02:37:49;;;;;;;10.20;7.65;;;;;;;13.24;80.61;101768.59;5045397;28;20491;-66
2022/09/23 02:40:24;;;;;;;9.77;7.22;;;;;;;13.19;80.38;101774.03;5045082;28;20061;-65
2022/09/23 02:43:09;;;;;;;9.50;7.43;;;;;;;13.22;80.42;101757.19;5030161;28;20376;-65
2022/09/23 02:45:37;;;;;;;10.60;7.53;;;;;;;13.31;79.79;101751.63;5035708;28;20030;-67
2022/09/23 02:48:06;;;;;;;9.35;7.68;;;;;;;13.34;80.00;101759.44;5040227;28;20552;-66
2022/09/23 02:50:32;;;;;;;;;;;;;;;13.36;79.85;101759.41;5050655;28;20131;-65
2022/09/23 02:52:58;;;;;;;10.40;6.90;;;;;;;13.33;79.51;101755.06;5051200;28;20358;-64
2022/09/23 02:55:24;;;;;;;8.55;7.13;;;;;;;13.34;79.66;101750.66;5050766;28;20658;-64
2022/09/23 02:57:52;;;;;;;10.00;7.43;;;;;;;13.37;79.34;101748.78;5051565;28;20045;-64
2022/09/23 03:00:17;;;;;;;10.32;7.47;;;;;;;13.35;79.59;101749.75;5048890;28;20108;-64
2022/09/23 03:03:15;;;;;;;9.23;7.78;;;;;;;13.28;80.12;101749.06;5049183;28;20451;-66
2022/09/23 03:05:47;;;;;;;8.95;6.85;;;;;;;13.29;80.19;101753.44;5048919;28;20064;-64
2022/09/23 03:08:24;;;;;;;9.15;7.13;;;;;;;13.27;80.32;101749.97;5048304;28;20025;-65
2022/09/23 03:10:53;;;;;;;9.48;7.85;;;;;;;13.27;80.70;101739.38;5030230;28;20037;-64
2022/09/23 03:13:21;;;;;;;7.82;7.03;;;;;;;13.32;80.44;101748.06;5029655;28;20052;-65
2022/09/23 03:16:05;;;;;;;10.77;7.55;;;;;;;13.30;80.73;101733.16;5029046;28;20117;-64
2022/09/23 03:18:39;;;;;;;9.20;7.20;;;;;;;13.37;80.23;101735.53;5048860;28;20028;-64
2022/09/23 03:21:12;;;;;;;13.65;8.02;;;;;;;13.42;79.87;101730.09;5040416;28;20030;-65
2022/09/23 03:23:39;;;;;;;11.75;7.22;;;;;;;13.52;79.22;101734.22;5037926;28;20495;-63
2022/09/23 03:26:11;;;;;;;10.27;8.10;;;;;;;13.43;79.75;101738.91;5047245;28;20079;-66
2022/09/23 03:28:37;;;;;;;13.63;8.15;;;;;;;13.40;79.51;101743.38;5046739;28;20475;-64
2022/09/23 03:31:02;;;;;;;10.05;7.38;;;;;;;13.45;79.24;101737.09;5048215;28;20033;-63
2022/09/23 03:33:29;;;;;;;8.80;7.65;;;;;;;13.45;79.83;101737.94;5047081;28;20021;-65
2022/09/23 03:39:08;;;;;;;11.95;8.70;;;;;;;13.47;79.39;101743.19;5027576;28;20036;-64
2022/09/23 03:41:38;;;;;;;14.13;8.50;;;;;;;13.49;79.02;101739.59;5036559;28;20029;-65
2022/09/23 03:44:06;;;;;;;10.52;7.95;;;;;;;13.54;79.14;101739.47;5047694;28;20044;-64
2022/09/23 03:46:32;;;;;;;11.15;8.20;;;;;;;13.52;79.05;101738.66;5046437;28;20021;-66
2022/09/23 03:49:12;;;;;;;11.77;7.57;;;;;;;13.47;79.09;101735.25;5046288;28;20067;-65
2022/09/23 03:51:37;;;;;;;9.05;7.70;;;;;;;13.47;79.05;101722.00;5048271;28;20036;-66
2022/09/23 03:54:03;;;;;;;10.30;8.02;;;;;;;13.46;79.23;101717.66;5046167;28;20029;-65
2022/09/23 03:56:28;;;;;;;14.45;8.38;;;;;;;13.54;79.04;101715.63;5047914;28;20029;-65
2022/09/23 03:58:53;;;;;;;10.20;8.18;;;;;;;13.55;78.99;101716.50;5046378;28;20025;-65
2022/09/23 04:01:19;;;;;;;9.02;7.43;;;;;;;13.53;79.28;101703.31;5028057;28;20100;-64
2022/09/23 04:03:44;;;;;;;15.27;8.77;;;;;;;13.52;79.25;101705.09;5038208;28;20098;-64
2022/09/23 04:06:09;;;;;;;11.70;7.38;;;;;;;13.63;78.52;101696.81;5042731;28;20048;-66
2022/09/23 04:08:35;;;;;;;11.13;7.78;;;;;;;13.69;78.11;101697.53;5026292;28;20697;-65
2022/09/23 04:11:02;;;;;;;11.13;7.28;;;;;;;13.69;78.28;101697.53;5037014;28;20398;-65
2022/09/23 04:13:28;;;;;;;9.88;6.90;;;;;;;13.77;77.77;101695.47;5048469;28;20122;-65
2022/09/23 04:15:53;;;;;;;11.70;7.40;;;;;;;13.70;78.07;101693.97;5047428;28;20060;-65
2022/09/23 04:18:20;;;;;;;16.48;8.32;;;;;;;13.69;78.32;101697.53;5027290;28;20116;-64
2022/09/23 04:20:45;;;;;;;12.25;7.90;;;;;;;13.68;78.45;101691.34;5025722;28;20042;-64
2022/09/23 04:23:10;;;;;;;9.15;6.43;;;;;;;13.81;78.05;101691.81;5027341;28;20041;-65
2022/09/23 04:25:43;;;;;;;10.95;7.57;;;;;;;13.81;78.00;101691.81;5027335;28;20041;-66
2022/09/23 04:28:08;;;;;;;8.45;6.93;;;;;;;13.80;78.29;101686.56;5027136;28;20091;-65
2022/09/23 04:30:40;;;;;;;14.43;8.10;;;;;;;13.81;78.49;101694.44;5031912;28;20112;-65
2022/09/23 04:33:05;;;;;;;10.10;7.05;;;;;;;13.89;77.90;101696.84;5047433;28;20021;-65
2022/09/23 04:35:30;;;;;;;10.52;7.63;;;;;;;13.85;78.41;101693.41;5046950;28;20112;-66
2022/09/23 04:37:56;;;;;;;12.60;7.82;;;;;;;13.92;78.13;101687.91;5037074;28;20061;-65
2022/09/23 04:40:21;;;;;;;10.55;7.35;;;;;;;13.89;78.73;101695.06;5040508;28;20519;-65
2022/09/23 04:42:47;;;;;;;11.75;7.00;;;;;;;13.89;78.74;101684.47;5046100;28;20017;-64
2022/09/23 04:45:12;;;;;;;13.40;7.20;;;;;;;13.97;78.51;101686.00;5046001;28;20028;-66
2022/09/23 04:47:37;;;;;;;9.02;7.47;;;;;;;13.96;78.27;101686.88;5045650;28;20083;-65
2022/09/23 04:50:03;;;;;;;12.07;7.22;;;;;;;13.95;78.34;101680.75;5046533;28;20394;-65
2022/09/23 04:52:30;;;;;;;10.27;7.15;;;;;;;13.98;78.01;101680.63;5035708;28;20383;-65
2022/09/23 04:54:55;;;;;;;11.60;7.05;;;;;;;14.01;78.27;101685.84;5026411;28;20104;-64
2022/09/23 04:57:20;;;;;;;9.90;7.35;;;;;;;14.00;77.95;101686.72;5032750;28;20108;-64
2022/09/23 04:59:46;;;;;;;10.75;7.25;;;;;;;13.99;77.99;101698.25;5047052;28;20048;-65
2022/09/23 05:02:11;;;;;;;10.38;7.72;;;;;;;14.02;78.30;101694.63;5045749;28;20075;-65
2022/09/23 05:04:36;;;;;;;12.82;6.90;;;;;;;14.02;78.17;101695.50;5045539;28;20052;-64
2022/09/23 05:07:03;;;;;;;12.60;6.57;;;;;;;14.08;77.96;101688.25;5030807;28;20049;-65
2022/09/23 05:09:28;;;;;;;10.85;6.82;;;;;;;14.10;77.98;101692.59;5026164;28;20527;-66
2022/09/23 05:11:54;;;;;;;9.95;7.10;;;;;;;14.07;78.28;101690.03;5037287;28;20056;-64
2022/09/23 05:14:19;;;;;;;10.13;6.93;;;;;;;14.08;78.20;101689.13;5046138;28;20052;-64
2022/09/23 05:16:44;;;;;;;9.40;7.20;;;;;;;14.08;78.20;101694.41;5045826;28;20031;-64
2022/09/23 05:19:12;;;;;;;11.20;7.50;;;;;;;14.09;78.31;101695.28;5045790;28;20032;-63
2022/09/23 05:21:38;;;;;;;6.95;6.15;;;;;;;14.13;78.36;101696.91;5043841;28;20025;-64
2022/09/23 05:24:03;;;;;;;13.48;7.40;;;;;;;14.13;78.12;101691.63;5045289;28;20031;-64
2022/09/23 05:26:30;;;;;;;15.82;7.03;;;;;;;14.18;78.17;101700.25;5044849;28;20021;-65
2022/09/23 05:28:57;;;;;;;14.45;8.13;;;;;;;14.15;78.75;101695.94;5046175;28;20086;-64
2022/09/23 05:31:25;;;;;;;9.48;6.47;;;;;;;14.21;78.52;101688.69;5042939;28;20037;-67
2022/09/23 05:33:52;;;;;;;10.57;7.47;;;;;;;14.18;78.79;101699.41;5046441;28;20025;-64
2022/09/23 05:36:20;;;;;;;8.25;6.50;;;;;;;14.20;78.74;101697.53;5045105;28;20083;-64
2022/09/23 05:38:45;;;;;;;15.02;8.00;;;;;;;14.17;78.73;101703.81;5026262;28;20033;-64
2022/09/23 05:41:12;;;;;;;10.73;6.90;;;;;;;14.28;78.42;101700.81;5025477;28;20056;-64
2022/09/23 05:43:38;;;;;;;9.20;7.25;;;;;;;14.37;77.87;101711.09;5043788;28;20104;-63
2022/09/23 05:46:09;;;;;;;11.75;7.03;;;;;;;14.34;77.92;101702.38;5045149;28;20116;-64
2022/09/23 05:48:35;;;;;;;13.75;6.88;;;;;;;14.37;77.87;101704.91;5044978;28;20036;-62
2022/09/23 05:51:02;;;;;;;10.25;7.50;;;;;;;14.38;77.92;101701.31;5044891;28;20033;-65
2022/09/23 05:53:28;;;;;;;11.05;7.25;;;;;;;14.43;77.75;101709.13;5043274;28;20029;-65
2022/09/23 05:55:57;;;;;;;13.95;7.00;;;;;;;14.47;77.84;101708.06;5046659;28;20036;-64
2022/09/23 05:58:23;;;;;;;12.32;7.55;;;;;;;14.47;78.05;101701.00;5046192;28;20371;-72
2022/09/23 06:00:49;;;;;;;13.60;7.45;;;;;;;14.49;78.37;101699.16;5048117;28;20037;-65
2022/09/23 06:03:16;;;;;;;12.23;7.10;;;;;;;14.52;78.58;101706.13;5047029;28;20051;-65
2022/09/23 06:05:42;;;;;;;8.75;6.72;;;;;;;14.54;77.85;101706.94;5045888;28;20142;-64
2022/09/23 06:08:08;;;;;;;11.80;7.35;;;;;;;14.63;77.74;101706.59;5043808;28;20091;-70
2022/09/23 06:10:38;;;;;;;7.38;6.32;;;;;;;14.70;77.29;101709.91;5044618;28;20029;-65
2022/09/23 06:13:03;;;;;;;12.93;6.65;;;;;;;14.79;76.79;101700.75;5045389;28;20118;-68
2022/09/23 06:15:28;;;;;;;11.80;7.15;;;;;;;14.89;75.95;101701.25;5031748;28;20041;-65
2022/09/23 06:17:54;;;;;;;11.18;6.55;;;;;;;14.96;75.35;101702.75;5026185;28;20040;-69
2022/09/23 06:20:19;;;;;;;9.40;6.75;;;;;;;15.04;75.01;101699.81;5037919;28;20094;-68
2022/09/23 06:22:44;;;;;;;12.05;6.53;;;;;;;15.11;74.65;101698.63;5048878;28;20526;-67
2022/09/23 06:25:11;;;;;;;11.93;7.00;;;;;;;15.18;74.89;101695.75;5048114;28;20033;-67
2022/09/23 06:27:36;;;;;;;10.13;6.93;;;;;;;15.28;74.57;101703.28;5045674;28;20524;-67
2022/09/23 06:30:02;;;;;;;14.25;7.03;;;;;;;15.28;74.81;101699.75;5040236;28;20021;-67
2022/09/23 06:32:28;;;;;;;13.95;6.68;;;;;;;15.32;74.23;101703.16;5049118;28;20062;-67
2022/09/23 06:34:53;;;;;;;9.90;6.13;;;;;;;15.40;74.01;101696.63;5048713;28;20788;-67
2022/09/23 06:37:18;;;;;;;11.30;6.50;;;;;;;15.43;73.98;101694.75;5044530;28;20029;-64
2022/09/23 06:39:44;;;;;;;17.60;7.80;;;;;;;15.61;73.28;101696.66;5050433;28;20021;-64
2022/09/23 06:42:09;;;;;;;12.15;6.07;;;;;;;15.65;72.75;101694.72;5050177;28;20108;-64
2022/09/23 06:44:34;;;;;;;14.82;7.05;;;;;;;15.75;72.19;101685.44;5050254;28;20647;-63
2022/09/23 06:47:00;;;;;;;8.02;5.95;;;;;;;15.63;72.74;101680.66;5047829;28;20501;-64
2022/09/23 06:49:25;;;;;;;11.40;6.38;;;;;;;15.97;71.68;101681.91;5050547;28;20367;-63
2022/09/23 06:51:51;;;;;;;12.05;6.15;;;;;;;15.97;71.59;101686.34;5043741;28;20082;-63
2022/09/23 06:54:16;;;;;;;8.77;5.82;;;;;;;15.99;71.88;101687.16;5048653;28;20021;-63
2022/09/23 06:56:42;;;;;;;8.50;5.65;;;;;;;16.05;71.89;101684.22;5047044;28;20146;-64
2022/09/23 06:59:09;;;;;;;12.77;6.22;;;;;;;16.04;71.88;101685.13;5045653;28;20104;-62
2022/09/23 07:01:35;;;;;;;15.45;6.25;;;;;;;16.19;71.84;101688.09;5046160;28;20041;-63
2022/09/23 07:04:00;;;;;;;10.32;6.20;;;;;;;16.27;70.44;101686.81;5048136;28;20029;-64
2022/09/23 07:06:25;;;;;;;13.50;6.15;;;;;;;16.44;70.42;101679.00;5047916;28;20049;-63
2022/09/23 07:08:51;;;;;;;14.52;6.78;;;;;;;16.34;71.13;101687.38;5034067;28;20663;-63
2022/09/23 07:11:21;;;;;;;13.43;6.45;;;;;;;16.54;70.48;101677.63;5028333;28;20025;-63
2022/09/23 07:13:46;;;;;;;10.68;6.32;;;;;;;16.58;71.15;101681.88;5038791;28;20451;-63
2022/09/23 07:16:11;;;;;;;13.07;6.13;;;;;;;16.73;70.01;101684.75;5047989;28;20036;-63
2022/09/23 07:18:37;;;;;;;7.32;6.38;;;;;;;16.76;70.14;101680.16;5045260;28;20021;-63
2022/09/23 07:21:14;;;;;;;10.45;6.22;;;;;;;16.80;69.79;101678.22;5048228;28;20033;-64
2022/09/23 07:23:44;;;;;;;14.98;6.07;;;;;;;16.88;69.13;101678.72;5045660;28;20383;-63
2022/09/23 07:26:10;;;;;;;8.18;6.47;;;;;;;16.93;69.79;101683.84;5048276;28;20190;-64
2022/09/23 07:28:36;;;;;;;11.60;5.93;;;;;;;17.10;69.12;101675.06;5045717;28;20542;-62
2022/09/23 07:31:07;;;;;;;12.60;6.60;;;;;;;17.12;68.30;101674.97;5047242;28;20503;-62
2022/09/23 07:33:34;;;;;;;14.63;6.30;;;;;;;17.19;68.20;101679.09;5046619;28;20021;-63
2022/09/23 07:36:08;;;;;;;14.27;6.90;;;;;;;17.19;68.73;101679.09;5047759;28;20548;-63
2022/09/23 07:38:35;;;;;;;10.68;6.10;;;;;;;17.17;68.51;101681.84;5046133;28;20021;-62
2022/09/23 07:41:02;;;;;;;11.68;6.13;;;;;;;17.24;68.34;101681.50;5048016;28;20112;-63
2022/09/23 07:43:31;;;;;;;14.30;6.88;;;;;;;17.14;69.58;101681.97;5047204;28;20021;-65
2022/09/23 07:45:56;;;;;;;16.80;6.68;;;;;;;17.29;69.25;101679.50;5047303;28;20072;-64
2022/09/23 07:48:22;;;;;;;13.45;6.15;;;;;;;17.33;68.72;101678.41;5047029;28;20485;-65
2022/09/23 07:50:47;;;;;;;13.85;6.97;;;;;;;17.35;68.51;101670.34;5046720;28;20086;-63
2022/09/23 07:53:13;;;;;;;10.63;7.20;;;;;;;17.39;68.84;101680.75;5046285;28;20029;-64
2022/09/23 07:55:39;;;;;;;12.43;6.55;;;;;;;17.46;69.01;101685.78;5046517;28;20083;-64
2022/09/23 07:58:04;;;;;;;10.90;6.25;;;;;;;17.58;68.04;101679.84;5047244;28;20025;-64
2022/09/23 08:00:30;;;;;;;13.68;7.07;;;;;;;17.60;67.84;101680.63;5051634;28;20516;-63
2022/09/23 08:02:55;;;;;;;9.23;6.30;;;;;;;17.55;69.47;101686.19;5047133;28;20032;-63
2022/09/23 08:05:21;;;;;;;12.52;6.53;;;;;;;17.56;69.06;101681.72;5045648;28;20025;-63
2022/09/23 08:07:48;;;;;;;15.70;7.00;;;;;;;17.76;68.20;101687.88;5026542;28;20471;-65
2022/09/23 08:10:19;;;;;;;12.40;6.47;;;;;;;17.71;69.27;101690.75;5027511;28;20109;-62
2022/09/23 08:12:45;;;;;;;10.32;5.82;;;;;;;17.77;68.84;101693.13;5045663;28;20036;-63
2022/09/23 08:15:10;;;;;;;15.48;6.90;;;;;;;17.83;69.14;101694.59;5046315;28;20029;-63
2022/09/23 08:17:36;;;;;;;12.45;6.53;;;;;;;17.98;67.67;101689.41;5046673;28;20104;-64
2022/09/23 08:20:01;;;;;;;16.05;6.88;;;;;;;18.04;68.46;101695.31;5046250;28;20103;-63
2022/09/23 08:22:27;;;;;;;13.48;5.82;;;;;;;18.16;66.94;101684.97;5044847;28;20025;-63
2022/09/23 08:24:52;;;;;;;9.20;5.97;;;;;;;18.17;66.90;101676.00;5047214;28;20491;-63
2022/09/23 08:27:17;;;;;;;10.98;6.32;;;;;;;18.24;67.99;101685.41;5046005;28;20021;-63
2022/09/23 08:29:42;;;;;;;12.77;6.43;;;;;;;18.46;67.03;101686.06;5047381;28;20025;-63
2022/09/23 08:32:08;;;;;;;11.45;6.53;;;;;;;18.50;67.22;101691.16;5045451;28;20021;-65
2022/09/23 08:34:34;;;;;;;9.68;6.22;;;;;;;18.52;66.79;101691.06;5047189;28;20061;-66
2022/09/23 08:37:00;;;;;;;9.43;6.28;;;;;;;18.79;65.52;101691.34;5038408;28;20022;-64
2022/09/23 08:39:25;;;;;;;11.30;6.07;;;;;;;18.89;63.62;101694.38;5026936;28;20052;-65
2022/09/23 08:42:11;;;;;;;9.07;6.40;;;;;;;18.93;64.30;101682.56;5029361;28;20021;-65
2022/09/23 08:45:03;;;;;;;12.85;6.32;;;;;;;18.92;64.68;101688.88;5045369;28;20029;-63
2022/09/23 08:47:37;;;;;;;12.10;6.13;;;;;;;19.05;63.38;101693.50;5032617;28;20487;-63
2022/09/23 08:50:20;;;;;;;11.90;6.57;;;;;;;19.00;64.15;101693.78;5025787;28;20040;-64
2022/09/23 08:52:55;;;;;;;13.43;6.40;;;;;;;19.19;62.36;101690.97;5034366;28;20601;-64
2022/09/23 08:55:42;;;;;;;9.05;6.30;;;;;;;19.07;63.13;101694.28;5046550;28;20494;-63
2022/09/23 08:58:23;;;;;;;9.55;5.93;;;;;;;19.26;62.41;101695.97;5045014;28;20060;-63
2022/09/23 09:01:21;;;;;;;9.23;5.63;;;;;;;19.31;63.30;101693.88;5046816;28;20506;-62
2022/09/23 09:03:46;;;;;;;12.83;6.43;;;;;;;19.41;62.88;101700.41;5044973;28;20060;-64
2022/09/23 09:06:17;;;;;;;11.23;6.60;;;;;;;19.51;62.16;101692.69;5045455;28;20765;-65
2022/09/23 09:08:49;;;;;;;12.45;6.03;;;;;;;19.40;62.84;101706.72;5043676;28;20133;-64
2022/09/23 09:11:16;;;;;;;11.65;6.35;;;;;;;19.57;62.06;101695.00;5046407;28;20032;-64
2022/09/23 09:13:54;;;;;;;13.57;6.22;;;;;;;19.58;62.31;101698.56;5044561;28;20360;-63
2022/09/23 09:16:25;;;;;;;10.32;5.95;;;;;;;19.77;62.00;101694.78;5045277;28;20478;-64
2022/09/23 09:18:53;;;;;;;8.95;5.78;;;;;;;19.66;62.26;101701.63;5032381;28;20426;-63
2022/09/23 09:21:24;;;;;;;12.83;6.37;;;;;;;19.85;62.25;101697.88;5023986;28;20076;-64
2022/09/23 09:23:57;;;;;;;10.15;5.45;;;;;;;20.16;60.19;101689.81;5028484;28;20366;-64
2022/09/23 09:26:26;;;;;;;8.55;5.80;;;;;;;20.01;60.57;101686.28;5026056;28;20036;-64
2022/09/23 09:29:17;;;;;;;10.05;5.72;;;;;;;20.04;61.59;101689.63;5035102;28;20067;-64
2022/09/23 09:31:47;;;;;;;10.68;5.78;;;;;;;20.15;60.31;101683.63;5043322;28;20303;-63
2022/09/23 09:34:19;;;;;;;18.60;6.07;;;;;;;20.39;60.47;101685.75;5046036;28;20103;-63
2022/09/23 09:37:06;;;;;;;12.88;5.97;;;;;;;20.49;59.74;101687.81;5044790;28;20028;-63
2022/09/23 09:39:33;;;;;;;11.70;6.15;;;;;;;20.46;60.21;101683.53;5045479;28;20082;-64
2022/09/23 09:41:59;;;;;;;11.70;5.60;;;;;;;20.94;58.85;101691.25;5045648;28;20040;-64
2022/09/23 09:44:30;;;;;;;13.48;5.30;;;;;;;21.02;59.89;101676.50;5043820;28;20020;-64
2022/09/23 09:47:13;;;;;;;13.23;6.15;;;;;;;20.94;59.09;101669.81;5043668;28;20500;-64
2022/09/23 09:50:01;;;;;;;11.43;5.43;;;;;;;21.20;58.78;101669.06;5031217;28;20036;-65
2022/09/23 09:52:28;;;;;;;10.13;5.28;;;;;;;21.08;58.39;101670.75;5047955;28;20027;-63
2022/09/23 09:54:58;;;;;;;12.48;5.78;;;;;;;21.15;59.31;101664.00;5042541;28;20456;-64
2022/09/23 09:57:26;;;;;;;14.25;6.10;;;;;;;21.30;57.73;101667.50;5030185;28;20067;-63
2022/09/23 09:59:51;;;;;;;14.68;6.40;;;;;;;21.08;58.59;101663.53;5037075;28;20071;-64
2022/09/23 10:02:27;;;;;;;9.90;5.22;;;;;;;21.18;56.67;101661.13;5051578;28;20108;-63
2022/09/23 10:04:59;;;;;;;14.38;6.20;;;;;;;20.99;58.90;101657.94;5049697;28;20031;-64
2022/09/23 10:07:29;;;;;;;12.68;5.50;;;;;;;20.90;58.32;101662.06;5029671;28;20124;-64
2022/09/23 10:09:55;;;;;;;12.43;5.57;;;;;;;21.05;57.46;101654.84;5028240;28;20029;-64
2022/09/23 10:12:22;;;;;;;10.32;5.25;;;;;;;21.24;57.32;101651.81;5046856;28;20025;-64
2022/09/23 10:14:50;;;;;;;14.13;5.47;;;;;;;21.09;58.10;101653.69;5048693;28;20032;-63
2022/09/23 10:17:34;;;;;;;8.52;5.28;;;;;;;21.26;57.48;101657.94;5049849;28;20102;-63
2022/09/23 10:20:02;;;;;;;11.43;5.32;;;;;;;21.37;57.41;101654.53;5049460;28;20039;-63
2022/09/23 10:22:32;;;;;;;10.50;5.35;;;;;;;21.62;56.63;101647.53;5029550;28;20131;-63
2022/09/23 10:25:14;;;;;;;7.60;5.03;;;;;;;21.58;56.53;101651.34;5011523;28;20099;-64
2022/09/23 10:27:39;;;;;;;9.05;5.18;;;;;;;21.35;57.30;101648.44;5045598;28;20033;-63
2022/09/23 10:30:22;;;;;;;7.75;4.18;;;;;;;21.57;56.10;101652.31;5048936;28;20036;-64
2022/09/23 10:32:48;;;;;;;13.18;5.10;;;;;;;21.53;56.40;101651.69;5050077;28;20075;-64
2022/09/23 10:35:23;;;;;;;13.88;4.80;;;;;;;21.51;55.74;101647.38;5050561;28;20029;-64
2022/09/23 10:37:51;;;;;;;6.50;4.85;;;;;;;21.54;55.74;101648.03;5049169;28;20025;-64
2022/09/23 10:49:11;;;;;;;11.18;5.15;;;;;;;21.43;57.05;101653.28;5029293;28;20037;-64
2022/09/23 10:52:00;;;;;;;8.20;4.53;;;;;;;21.38;56.10;101653.59;5031417;28;20166;-66
2022/09/23 10:54:40;;;;;;;10.77;4.65;;;;;;;21.54;55.01;101653.41;5048499;28;20029;-63
2022/09/23 10:57:48;;;;;;;8.75;5.55;;;;;;;21.25;56.27;101653.53;5048528;28;20039;-66
2022/09/23 11:00:39;;;;;;;11.95;5.47;;;;;;;20.96;57.78;101648.28;5015285;28;20136;-64
2022/09/23 11:03:23;;;;;;;9.10;5.60;;;;;;;20.92;59.07;101650.28;5047720;28;20051;-64
2022/09/23 11:06:04;;;;;;;12.18;5.75;;;;;;;21.22;57.66;101643.00;5048507;28;20051;-64
2022/09/23 11:08:35;;;;;;;11.90;5.65;;;;;;;21.55;57.35;101640.88;5046422;28;20028;-62
2022/09/23 11:11:19;;;;;;;13.70;5.30;;;;;;;21.83;56.09;101647.03;5048552;28;20017;-64
2022/09/23 11:13:51;;;;;;;9.07;5.57;;;;;;;21.93;55.38;101644.56;5048308;28;20037;-65
2022/09/23 11:16:55;;;;;;;11.00;5.50;;;;;;;22.07;55.70;101641.75;5048335;28;20025;-65
2022/09/23 11:19:39;;;;;;;12.70;5.10;;;;;;;22.45;54.79;101642.69;5046564;28;20045;-63
2022/09/23 11:22:45;;;;;;;10.25;5.40;;;;;;;22.87;52.30;101649.56;5047601;28;20112;-63
2022/09/23 11:25:20;;;;;;;8.40;4.97;;;;;;;22.82;53.08;101649.06;5027649;28;20033;-63
2022/09/23 11:28:02;;;;;;;6.40;4.57;;;;;;;22.63;53.03;101642.34;5027333;28;20040;-63
2022/09/23 11:30:52;;;;;;;11.55;4.82;;;;;;;22.91;52.51;101634.94;5028678;28;20414;-63
2022/09/23 11:33:45;;;;;;;7.53;4.20;;;;;;;22.96;51.60;101631.91;5029288;28;20495;-65
2022/09/23 11:36:19;;;;;;;8.93;3.92;;;;;;;22.91;51.88;101632.25;5048140;28;20028;-62
2022/09/23 11:38:47;;;;;;;5.68;3.80;;;;;;;22.84;52.47;101637.22;5043007;28;20033;-63
2022/09/23 11:41:24;;;;;;;13.35;5.10;;;;;;;22.80;52.86;101632.19;5037735;28;20380;-63
2022/09/23 11:43:57;;;;;;;6.25;3.95;;;;;;;22.92;52.87;101627.75;5047780;28;20024;-63
2022/09/23 11:46:33;;;;;;;10.88;5.03;;;;;;;22.88;52.40;101624.44;5030243;28;20029;-64
2022/09/23 11:49:09;;;;;;;8.07;4.22;;;;;;;22.93;52.70;101614.19;5046515;28;20031;-62